Time;durP1;ratioP1;P1;durP2;ratioP2;P2;SDS_P1;SDS_P2;PMS_P1;PMS_P2;Temp;Humidity;BMP_temperature;BMP_pressure;BME280_temperature;BME280_humidity;BME280_pressure;Samples;Min_cycle;Max_cycle;Signal;HPM_P1;HPM_P2
2022/04/30 00:00:19;;;;;;;43.00;4.82;;;34.20;16.50;;;;;;5074769;28;20036;-64
2022/04/30 00:02:45;;;;;;;19.10;4.00;;;34.30;16.60;;;;;;5074303;28;20041;-65
2022/04/30 00:05:13;;;;;;;18.35;3.80;;;34.20;16.40;;;;;;5055585;28;20150;-64
2022/04/30 00:07:39;;;;;;;22.83;4.18;;;34.10;16.60;;;;;;5056528;28;20052;-64
2022/04/30 00:10:06;;;;;;;22.92;4.43;;;34.00;16.90;;;;;;5074733;28;20087;-63
2022/04/30 00:12:33;;;;;;;27.80;4.43;;;34.10;17.20;;;;;;5055332;28;20046;-64
2022/04/30 00:14:59;;;;;;;23.13;3.80;;;34.10;16.70;;;;;;5056037;28;20049;-63
2022/04/30 00:17:25;;;;;;;18.23;4.10;;;34.10;17.60;;;;;;5057983;28;20058;-63
2022/04/30 00:19:52;;;;;;;18.80;4.32;;;34.10;16.70;;;;;;5058641;28;20107;-63
2022/04/30 00:22:18;;;;;;;18.88;4.40;;;33.90;16.60;;;;;;5057989;28;20039;-64
2022/04/30 00:24:45;;;;;;;16.75;4.63;;;33.80;16.50;;;;;;5057256;28;20478;-66
2022/04/30 00:27:12;;;;;;;16.02;4.47;;;33.50;16.30;;;;;;5076039;28;20120;-65
2022/04/30 00:29:39;;;;;;;18.67;4.85;;;33.60;16.60;;;;;;5057900;28;20108;-63
2022/04/30 00:32:05;;;;;;;39.05;4.95;;;33.50;17.10;;;;;;5055532;28;20684;-65
2022/04/30 00:34:32;;;;;;;303.63;26.73;;;33.50;17.20;;;;;;5053903;28;20599;-63
2022/04/30 00:37:02;;;;;;;162.07;16.65;;;33.60;17.10;;;;;;5073563;28;20141;-62
2022/04/30 00:39:31;;;;;;;60.95;7.90;;;33.70;17.10;;;;;;5072978;28;20051;-67
2022/04/30 00:41:57;;;;;;;28.73;4.72;;;33.50;16.70;;;;;;5056887;28;20158;-66
2022/04/30 00:44:24;;;;;;;32.33;4.40;;;33.40;16.90;;;;;;5074631;28;20036;-63
2022/04/30 00:46:50;;;;;;;16.48;4.15;;;33.40;16.80;;;;;;5055858;28;20460;-65
2022/04/30 00:49:17;;;;;;;22.40;4.30;;;33.30;16.70;;;;;;5057084;28;20046;-62
2022/04/30 00:51:44;;;;;;;15.38;4.05;;;33.20;16.90;;;;;;5075881;28;20402;-63
2022/04/30 00:54:12;;;;;;;36.75;5.25;;;33.10;16.80;;;;;;5055421;28;20148;-62
2022/04/30 00:56:55;;;;;;;20.52;4.53;;;33.20;17.50;;;;;;5076640;28;20043;-61
2022/04/30 00:59:23;;;;;;;13.95;4.25;;;33.10;16.30;;;;;;5058175;28;20067;-64
2022/04/30 01:01:50;;;;;;;21.95;4.00;;;33.00;16.80;;;;;;5075328;28;20045;-63
2022/04/30 01:04:18;;;;;;;20.13;4.88;;;32.90;16.70;;;;;;5058125;28;20133;-62
2022/04/30 01:06:57;;;;;;;16.85;4.55;;;32.80;16.60;;;;;;5057904;28;21090;-65
2022/04/30 01:09:28;;;;;;;35.13;5.90;;;32.80;16.50;;;;;;5071675;28;20442;-63
2022/04/30 01:12:04;;;;;;;112.43;9.65;;;32.70;16.40;;;;;;5054423;28;20045;-65
2022/04/30 01:14:31;;;;;;;58.60;6.88;;;32.60;16.60;;;;;;5056590;28;20082;-62
2022/04/30 01:17:07;;;;;;;15.65;4.10;;;32.50;16.60;;;;;;5037560;28;20089;-62
2022/04/30 01:19:36;;;;;;;59.95;7.00;;;32.50;16.50;;;;;;5036482;28;20049;-66
2022/04/30 01:22:20;;;;;;;56.33;6.13;;;32.40;16.40;;;;;;5034290;28;20402;-63
2022/04/30 01:24:57;;;;;;;45.83;5.72;;;32.40;16.80;;;;;;5037166;28;20050;-63
2022/04/30 01:27:26;;;;;;;29.98;4.97;;;32.30;17.40;;;;;;5037594;28;20203;-66
2022/04/30 01:29:58;;;;;;;30.98;5.40;;;32.20;17.70;;;;;;5034980;28;20073;-69
2022/04/30 01:38:10;;;;;;;30.10;5.93;;;31.80;17.60;;;;;;5055577;28;20069;-66
2022/04/30 01:40:37;;;;;;;38.08;5.00;;;31.70;18.00;;;;;;5035526;28;20054;-65
2022/04/30 01:43:06;;;;;;;18.38;4.90;;;31.50;18.30;;;;;;5054617;28;20079;-65
2022/04/30 01:45:33;;;;;;;26.27;4.85;;;31.40;17.90;;;;;;5055021;28;20513;-63
2022/04/30 01:48:02;;;;;;;26.85;5.00;;;31.30;18.00;;;;;;5052486;28;20539;-65
2022/04/30 01:50:29;;;;;;;20.77;4.43;;;31.20;17.90;;;;;;5034965;28;20057;-64
2022/04/30 01:52:55;;;;;;;18.92;4.82;;;31.20;17.90;;;;;;5032739;28;20064;-63
2022/04/30 01:55:22;;;;;;;25.05;4.88;;;31.00;17.70;;;;;;5035693;28;20082;-63
2022/04/30 01:57:48;;;;;;;21.88;4.80;;;31.00;18.00;;;;;;5035288;28;20179;-63
2022/04/30 02:00:15;;;;;;;24.95;6.85;;;30.80;18.10;;;;;;5017088;28;20161;-63
2022/04/30 02:02:44;;;;;;;25.45;6.78;;;30.80;18.40;;;;;;5053011;28;20059;-63
2022/04/30 02:05:13;;;;;;;28.90;6.72;;;30.70;18.30;;;;;;5035221;28;20136;-63
2022/04/30 02:07:46;;;;;;;28.25;8.02;;;30.50;18.20;;;;;;5018747;28;20155;-65
2022/04/30 02:10:13;;;;;;;26.20;7.78;;;30.50;18.20;;;;;;5017099;28;20064;-64
2022/04/30 02:12:40;;;;;;;31.52;7.53;;;30.40;18.10;;;;;;5036332;28;20054;-63
2022/04/30 02:15:08;;;;;;;34.80;7.97;;;30.30;18.30;;;;;;5053111;28;20053;-63
2022/04/30 02:17:38;;;;;;;25.40;7.80;;;30.30;18.30;;;;;;5074389;28;20075;-63
2022/04/30 02:20:19;;;;;;;27.10;6.57;;;30.10;18.40;;;;;;5073079;28;20510;-63
2022/04/30 02:22:47;;;;;;;34.22;6.63;;;30.00;18.30;;;;;;5073695;28;20041;-62
2022/04/30 02:25:15;;;;;;;20.73;6.80;;;29.90;18.40;;;;;;5036293;28;20067;-62
2022/04/30 02:27:43;;;;;;;31.63;8.07;;;29.80;18.30;;;;;;5073332;28;20051;-62
2022/04/30 02:30:15;;;;;;;30.33;7.28;;;29.80;18.40;;;;;;5055223;28;20534;-62
2022/04/30 02:33:03;;;;;;;27.45;6.68;;;29.70;18.60;;;;;;5056569;28;20070;-63
2022/04/30 02:35:33;;;;;;;24.63;7.05;;;29.50;18.70;;;;;;5055888;28;20512;-64
2022/04/30 02:38:01;;;;;;;34.45;7.40;;;29.40;18.80;;;;;;5070600;28;20052;-61
2022/04/30 02:40:30;;;;;;;31.65;6.68;;;29.30;18.80;;;;;;5055656;28;20083;-62
2022/04/30 02:43:06;;;;;;;37.75;7.88;;;29.20;18.80;;;;;;5058401;28;20068;-63
2022/04/30 02:45:32;;;;;;;39.42;7.40;;;29.20;19.10;;;;;;5059037;28;20076;-62
2022/04/30 02:47:59;;;;;;;37.58;6.80;;;29.00;19.30;;;;;;5059017;28;20071;-63
2022/04/30 02:50:26;;;;;;;31.45;6.55;;;28.90;20.10;;;;;;5056992;28;20065;-63
2022/04/30 02:52:54;;;;;;;26.63;6.32;;;28.80;19.50;;;;;;5071831;28;20058;-62
2022/04/30 02:55:22;;;;;;;30.25;6.35;;;28.60;19.70;;;;;;5057600;28;20079;-64
2022/04/30 03:00:39;;;;;;;;;;;28.40;20.40;;;;;;5076533;28;20114;-62
2022/04/30 03:03:06;;;;;;;29.83;6.88;;;28.20;20.50;;;;;;5059632;28;19955;-63
2022/04/30 03:05:33;;;;;;;45.30;8.40;;;28.10;20.70;;;;;;5056488;28;20156;-65
2022/04/30 03:08:00;;;;;;;29.88;6.30;;;28.00;21.30;;;;;;5059521;28;20074;-65
2022/04/30 03:10:27;;;;;;;37.67;7.90;;;27.90;21.30;;;;;;5046165;28;20159;-66
2022/04/30 03:12:53;;;;;;;36.00;7.13;;;27.80;21.90;;;;;;5059533;28;20098;-64
2022/04/30 03:15:22;;;;;;;47.88;7.53;;;27.70;21.90;;;;;;5060002;28;20081;-64
2022/04/30 03:23:19;;;;;;;39.65;7.43;;;27.50;22.20;;;;;;5075886;28;20583;-64
2022/04/30 03:25:46;;;;;;;45.83;7.65;;;27.40;22.20;;;;;;5058326;28;20135;-64
2022/04/30 03:28:12;;;;;;;48.42;8.05;;;27.20;22.40;;;;;;5076814;28;20076;-68
2022/04/30 03:30:39;;;;;;;51.75;8.30;;;27.10;22.40;;;;;;5059342;28;20104;-68
2022/04/30 03:33:08;;;;;;;43.35;7.85;;;27.10;22.40;;;;;;5041917;28;20090;-65
2022/04/30 03:35:38;;;;;;;49.22;7.72;;;26.90;22.50;;;;;;5077518;28;20066;-67
2022/04/30 03:38:06;;;;;;;58.13;8.68;;;26.80;22.70;;;;;;5075057;28;20074;-66
2022/04/30 03:40:40;;;;;;;43.67;8.50;;;26.80;22.70;;;;;;5058380;28;20076;-68
2022/04/30 03:43:07;;;;;;;51.92;9.07;;;26.70;22.60;;;;;;5057802;28;20099;-64
2022/04/30 03:45:34;;;;;;;64.05;10.30;;;26.60;22.80;;;;;;5058068;28;20159;-68
2022/04/30 03:48:01;;;;;;;51.28;9.90;;;26.50;23.00;;;;;;5055129;28;20793;-64
2022/04/30 03:50:27;;;;;;;67.88;10.90;;;26.40;23.10;;;;;;5058249;28;20173;-66
2022/04/30 03:52:54;;;;;;;63.17;11.10;;;26.30;23.10;;;;;;5059298;28;20482;-67
2022/04/30 03:55:20;;;;;;;66.28;10.85;;;26.20;23.40;;;;;;5054508;28;20177;-69
2022/04/30 03:57:47;;;;;;;61.22;10.23;;;26.20;23.60;;;;;;5057219;28;20112;-67
2022/04/30 04:00:14;;;;;;;60.35;9.48;;;26.10;23.70;;;;;;5042568;28;20077;-67
2022/04/30 04:02:41;;;;;;;49.35;10.45;;;26.00;23.60;;;;;;5054088;28;20095;-65
2022/04/30 04:05:12;;;;;;;58.22;11.10;;;26.00;23.80;;;;;;5054237;28;20075;-64
2022/04/30 04:07:39;;;;;;;59.60;10.77;;;26.00;24.00;;;;;;5075522;28;20094;-65
2022/04/30 04:10:06;;;;;;;65.38;11.77;;;25.90;24.10;;;;;;5076464;28;20066;-69
2022/04/30 04:12:33;;;;;;;64.32;12.00;;;25.90;24.20;;;;;;5075770;28;20070;-69
2022/04/30 04:17:44;;;;;;;54.08;10.65;;;25.70;24.30;;;;;;5073056;28;20475;-67
2022/04/30 04:20:13;;;;;;;58.58;11.27;;;25.70;24.30;;;;;;5054007;28;20063;-66
2022/04/30 04:22:39;;;;;;;50.38;10.20;;;25.70;24.20;;;;;;5054900;28;20069;-65
2022/04/30 04:27:58;;;;;;;52.70;11.75;;;25.50;24.40;;;;;;5076830;28;20578;-67
2022/04/30 04:30:27;;;;;;;88.18;14.02;;;25.40;24.40;;;;;;5057839;28;20082;-65
2022/04/30 04:32:54;;;;;;;68.72;13.43;;;25.40;24.70;;;;;;5059394;28;20063;-64
2022/04/30 04:35:21;;;;;;;65.40;13.18;;;25.30;24.80;;;;;;5056893;28;20075;-63
2022/04/30 04:37:48;;;;;;;76.38;15.20;;;25.30;25.00;;;;;;5055747;28;20085;-65
2022/04/30 04:40:16;;;;;;;75.15;14.40;;;25.30;25.10;;;;;;5058446;28;20077;-62
2022/04/30 04:42:43;;;;;;;65.18;14.35;;;25.20;25.20;;;;;;5056762;28;20129;-63
2022/04/30 04:45:11;;;;;;;83.35;15.25;;;25.10;25.30;;;;;;5054587;28;20095;-64
2022/04/30 04:47:40;;;;;;;107.40;15.10;;;25.10;25.60;;;;;;5056722;28;20071;-62
2022/04/30 04:50:10;;;;;;;78.28;14.98;;;25.10;25.90;;;;;;5057295;28;20589;-64
2022/04/30 04:52:37;;;;;;;98.28;16.65;;;25.10;26.50;;;;;;5053812;28;20066;-63
2022/04/30 04:55:03;;;;;;;156.75;20.35;;;25.00;26.60;;;;;;5056557;28;20491;-66
2022/04/30 04:57:30;;;;;;;122.38;17.45;;;25.00;26.60;;;;;;5074674;28;20149;-63
2022/04/30 04:59:57;;;;;;;97.10;16.27;;;25.00;26.40;;;;;;5052835;28;20529;-65
2022/04/30 05:02:23;;;;;;;91.13;17.88;;;24.90;26.30;;;;;;5053883;28;20112;-62
2022/04/30 05:04:50;;;;;;;92.22;17.60;;;24.80;26.00;;;;;;5059269;28;20076;-65
2022/04/30 05:07:16;;;;;;;86.03;16.08;;;24.70;26.10;;;;;;5055159;28;20168;-62
2022/04/30 05:09:42;;;;;;;71.18;16.33;;;24.70;26.00;;;;;;5069785;28;20079;-62
2022/04/30 05:12:09;;;;;;;82.60;15.77;;;24.60;25.70;;;;;;5057321;28;20075;-64
2022/04/30 05:14:36;;;;;;;69.28;16.52;;;24.50;25.80;;;;;;5034831;28;20107;-63
2022/04/30 05:17:04;;;;;;;79.25;14.85;;;24.40;25.90;;;;;;5039623;28;20081;-62
2022/04/30 05:19:30;;;;;;;82.07;15.55;;;24.40;26.00;;;;;;5019345;28;20118;-62
2022/04/30 05:21:56;;;;;;;82.35;15.32;;;24.40;26.30;;;;;;5066223;28;20087;-62
2022/04/30 05:24:23;;;;;;;72.93;14.77;;;24.40;26.50;;;;;;5051059;28;20085;-62
2022/04/30 05:26:49;;;;;;;70.18;14.65;;;24.30;26.30;;;;;;5063039;28;20095;-62
2022/04/30 05:29:16;;;;;;;78.25;14.35;;;24.30;26.50;;;;;;5038892;28;20075;-61
2022/04/30 05:31:43;;;;;;;81.18;16.65;;;24.30;26.50;;;;;;5034449;28;20556;-63
2022/04/30 05:34:10;;;;;;;91.13;15.60;;;24.10;26.40;;;;;;5039062;28;20067;-62
2022/04/30 05:36:38;;;;;;;77.00;15.18;;;24.10;26.80;;;;;;5038276;28;20176;-62
2022/04/30 05:39:07;;;;;;;78.45;17.60;;;24.00;26.70;;;;;;5069902;28;20082;-62
2022/04/30 05:41:33;;;;;;;80.57;16.00;;;24.00;26.90;;;;;;5040593;28;20072;-63
2022/04/30 05:44:00;;;;;;;84.60;16.90;;;24.00;27.10;;;;;;5071214;28;20604;-64
2022/04/30 05:46:26;;;;;;;79.25;18.35;;;24.00;26.90;;;;;;5038173;28;20463;-63
2022/04/30 05:48:53;;;;;;;92.78;18.83;;;23.90;26.60;;;;;;5036428;28;20084;-64
2022/04/30 05:51:20;;;;;;;102.65;23.42;;;23.80;26.50;;;;;;5037164;28;20121;-62
2022/04/30 05:53:46;;;;;;;103.00;22.45;;;23.80;26.60;;;;;;5062431;28;20071;-62
2022/04/30 05:56:13;;;;;;;105.75;22.13;;;23.80;26.60;;;;;;5068203;28;20500;-62
2022/04/30 05:58:40;;;;;;;101.30;22.17;;;23.70;26.50;;;;;;5066659;28;20067;-62
2022/04/30 06:01:06;;;;;;;105.45;22.13;;;23.70;26.70;;;;;;5036285;28;20570;-63
2022/04/30 06:03:33;;;;;;;112.40;23.17;;;23.60;27.10;;;;;;5041473;28;20115;-63
2022/04/30 06:06:00;;;;;;;106.30;21.60;;;23.60;27.20;;;;;;5036638;28;20126;-61
2022/04/30 06:08:26;;;;;;;97.05;22.25;;;23.50;27.30;;;;;;5035759;28;20077;-62
2022/04/30 06:10:56;;;;;;;100.93;22.98;;;23.50;27.50;;;;;;5037942;28;20135;-62
2022/04/30 06:13:23;;;;;;;120.40;22.98;;;23.50;27.90;;;;;;5035214;28;20115;-62
2022/04/30 06:15:50;;;;;;;102.18;23.00;;;23.40;27.90;;;;;;5052078;28;20106;-63
2022/04/30 06:18:17;;;;;;;90.85;22.75;;;23.40;27.80;;;;;;5034980;28;20081;-61
2022/04/30 06:20:44;;;;;;;108.10;22.35;;;23.30;27.90;;;;;;5056866;28;20068;-62
2022/04/30 06:23:10;;;;;;;114.03;22.15;;;23.30;28.10;;;;;;5040102;28;20118;-64
2022/04/30 06:25:37;;;;;;;95.53;23.00;;;23.20;28.10;;;;;;5056883;28;20454;-64
2022/04/30 06:28:03;;;;;;;111.05;23.00;;;23.20;28.30;;;;;;5039390;28;20431;-64
2022/04/30 06:30:30;;;;;;;106.50;23.40;;;23.20;28.40;;;;;;5054974;28;20077;-65
2022/04/30 06:32:56;;;;;;;98.93;24.38;;;23.10;29.00;;;;;;5057015;28;20079;-61
2022/04/30 06:35:23;;;;;;;105.93;24.65;;;23.10;28.70;;;;;;5039709;28;20604;-62
2022/04/30 06:37:49;;;;;;;96.97;22.75;;;22.90;28.80;;;;;;5039341;28;20131;-65
2022/04/30 06:40:15;;;;;;;113.07;24.52;;;22.90;29.00;;;;;;5037808;28;20159;-61
2022/04/30 06:42:44;;;;;;;111.45;22.35;;;22.90;29.30;;;;;;5040631;28;20587;-64
2022/04/30 06:45:12;;;;;;;115.22;24.33;;;22.80;29.40;;;;;;5037861;28;20463;-62
2022/04/30 06:47:40;;;;;;;110.35;23.95;;;22.70;29.50;;;;;;5057716;28;20073;-62
2022/04/30 06:50:07;;;;;;;105.13;24.13;;;22.70;29.70;;;;;;5040288;28;20535;-64
2022/04/30 06:52:34;;;;;;;102.50;22.40;;;22.70;30.00;;;;;;5040511;28;20104;-61
2022/04/30 06:57:47;;;;;;;108.75;24.45;;;22.70;30.20;;;;;;5053235;28;20437;-63
2022/04/30 07:02:59;;;;;;;135.10;26.65;;;22.70;30.10;;;;;;5055264;28;20082;-63
2022/04/30 07:05:29;;;;;;;117.30;25.75;;;22.60;30.00;;;;;;5021573;28;20096;-62
2022/04/30 07:07:56;;;;;;;130.60;27.17;;;22.50;30.00;;;;;;5056746;28;20074;-61
2022/04/30 07:10:22;;;;;;;133.55;28.13;;;22.50;30.00;;;;;;5057104;28;20075;-64
2022/04/30 07:12:48;;;;;;;122.85;27.70;;;22.50;30.00;;;;;;5041802;28;20426;-64
2022/04/30 07:15:15;;;;;;;116.85;25.23;;;22.40;30.10;;;;;;5077355;28;20068;-61
2022/04/30 07:17:41;;;;;;;133.70;27.45;;;22.30;30.00;;;;;;5053492;28;20075;-62
2022/04/30 07:20:09;;;;;;;105.65;26.60;;;22.30;30.10;;;;;;5075023;28;20159;-63
2022/04/30 07:22:36;;;;;;;118.60;24.88;;;22.10;30.30;;;;;;5075111;28;20071;-64
2022/04/30 07:25:08;;;;;;;142.32;27.73;;;22.10;30.60;;;;;;5074780;28;20071;-62
2022/04/30 07:27:35;;;;;;;118.97;25.67;;;22.10;30.90;;;;;;5056456;28;20080;-64
2022/04/30 07:30:03;;;;;;;111.55;26.35;;;22.20;31.20;;;;;;5055326;28;21349;-62
2022/04/30 07:32:30;;;;;;;109.63;25.60;;;22.20;31.40;;;;;;5058754;28;20121;-61
2022/04/30 07:34:56;;;;;;;132.70;28.13;;;22.10;31.30;;;;;;5075458;28;20068;-61
2022/04/30 07:37:22;;;;;;;134.07;29.58;;;22.10;31.50;;;;;;5075285;28;20612;-65
2022/04/30 07:39:49;;;;;;;141.68;32.03;;;22.10;31.90;;;;;;5077542;28;20079;-63
2022/04/30 07:42:15;;;;;;;129.75;31.40;;;22.10;31.60;;;;;;5056541;28;20407;-63
2022/04/30 07:44:41;;;;;;;150.07;33.15;;;22.10;32.00;;;;;;5058483;28;20083;-61
2022/04/30 07:47:08;;;;;;;164.65;30.27;;;22.10;32.20;;;;;;5058769;28;20092;-62
2022/04/30 07:49:36;;;;;;;128.43;27.33;;;22.10;32.00;;;;;;5059978;28;20072;-62
2022/04/30 07:52:03;;;;;;;125.40;27.95;;;22.00;32.00;;;;;;5057999;28;20078;-62
2022/04/30 07:54:29;;;;;;;130.75;28.30;;;21.90;31.80;;;;;;5073476;28;20112;-63
2022/04/30 07:56:58;;;;;;;149.20;28.63;;;21.70;31.90;;;;;;5078416;28;20095;-63
2022/04/30 07:59:25;;;;;;;150.02;30.77;;;21.80;32.50;;;;;;5060039;28;20137;-64
2022/04/30 08:01:52;;;;;;;149.20;30.13;;;21.80;32.40;;;;;;5058321;28;20174;-64
2022/04/30 08:04:19;;;;;;;174.38;29.52;;;21.80;32.60;;;;;;5055777;28;20076;-62
2022/04/30 08:06:45;;;;;;;141.88;30.25;;;21.80;32.20;;;;;;5077291;28;20096;-61
2022/04/30 08:09:11;;;;;;;140.70;29.63;;;21.70;32.50;;;;;;5058726;28;20107;-64
2022/04/30 08:11:38;;;;;;;153.40;31.83;;;21.60;32.50;;;;;;5075679;28;20564;-63
2022/04/30 08:14:04;;;;;;;142.57;31.35;;;21.60;32.70;;;;;;5059198;28;20562;-62
2022/04/30 08:16:31;;;;;;;169.30;33.03;;;21.60;32.80;;;;;;5060167;28;20493;-63
2022/04/30 08:18:58;;;;;;;151.77;31.73;;;21.40;32.70;;;;;;5057838;28;20487;-62
2022/04/30 08:21:25;;;;;;;157.32;32.70;;;21.40;32.80;;;;;;5058618;28;20106;-61
2022/04/30 08:23:51;;;;;;;172.43;32.08;;;21.50;33.10;;;;;;5076173;28;20529;-64
2022/04/30 08:26:18;;;;;;;150.27;35.08;;;21.50;33.20;;;;;;5058357;28;20096;-60
2022/04/30 08:28:44;;;;;;;156.07;32.85;;;21.50;34.10;;;;;;5076840;28;20090;-63
2022/04/30 08:31:11;;;;;;;155.70;32.00;;;21.50;34.10;;;;;;5056841;28;20072;-62
2022/04/30 08:33:37;;;;;;;157.40;34.90;;;21.40;34.20;;;;;;5077141;28;20083;-61
2022/04/30 08:36:05;;;;;;;158.80;32.20;;;21.40;34.10;;;;;;5076126;28;20154;-62
2022/04/30 08:38:31;;;;;;;150.32;32.75;;;21.20;34.00;;;;;;5057546;28;20569;-62
2022/04/30 08:40:57;;;;;;;158.63;34.50;;;21.00;34.10;;;;;;5076592;28;20079;-65
2022/04/30 08:43:24;;;;;;;157.30;34.05;;;21.00;34.30;;;;;;5057245;28;20103;-61
2022/04/30 08:45:50;;;;;;;147.15;33.50;;;21.00;34.30;;;;;;5056489;28;20172;-62
2022/04/30 08:48:18;;;;;;;148.07;30.42;;;21.00;34.20;;;;;;5057776;28;20084;-64
2022/04/30 08:50:47;;;;;;;181.98;35.05;;;21.00;34.20;;;;;;5058889;28;20079;-64
2022/04/30 08:53:14;;;;;;;146.07;33.33;;;21.00;34.20;;;;;;5058325;28;20084;-60
2022/04/30 08:55:41;;;;;;;148.73;32.10;;;21.00;34.30;;;;;;5074472;28;20076;-61
2022/04/30 08:58:08;;;;;;;173.02;31.98;;;21.00;34.30;;;;;;5075281;28;20118;-61
2022/04/30 09:00:46;;;;;;;138.60;31.17;;;21.00;34.10;;;;;;5075221;28;20159;-61
2022/04/30 09:03:17;;;;;;;144.57;32.05;;;21.00;33.90;;;;;;5055093;28;20476;-63
2022/04/30 09:05:44;;;;;;;168.80;34.42;;;21.00;34.10;;;;;;5053690;28;20091;-61
2022/04/30 09:08:11;;;;;;;141.30;31.88;;;20.90;33.70;;;;;;5055003;28;20522;-62
2022/04/30 09:10:37;;;;;;;144.70;31.67;;;20.80;33.60;;;;;;5054522;28;20076;-61
2022/04/30 09:13:05;;;;;;;133.63;32.13;;;20.80;33.70;;;;;;5055550;28;20106;-64
2022/04/30 09:15:33;;;;;;;138.77;32.10;;;20.80;33.90;;;;;;5072049;28;20068;-63
2022/04/30 09:18:00;;;;;;;151.43;33.00;;;20.70;34.20;;;;;;5057333;28;20449;-61
2022/04/30 09:20:29;;;;;;;153.68;33.65;;;20.80;34.40;;;;;;5059032;28;20076;-62
2022/04/30 09:22:56;;;;;;;131.10;33.35;;;20.80;34.50;;;;;;5054165;28;20536;-64
2022/04/30 09:25:23;;;;;;;131.98;32.92;;;20.80;34.60;;;;;;5056003;28;20437;-64
2022/04/30 09:27:51;;;;;;;139.63;30.92;;;20.70;34.00;;;;;;5070209;28;20523;-61
2022/04/30 09:30:29;;;;;;;117.05;30.15;;;20.70;33.70;;;;;;5075439;28;20476;-63
2022/04/30 09:32:58;;;;;;;137.38;31.80;;;20.70;33.50;;;;;;5055133;28;20071;-63
2022/04/30 09:38:11;;;;;;;127.10;28.98;;;20.60;33.60;;;;;;5074458;28;20075;-62
2022/04/30 09:40:38;;;;;;;131.40;29.13;;;20.50;33.80;;;;;;5074178;28;20159;-64
2022/04/30 09:43:15;;;;;;;114.10;28.25;;;20.50;34.20;;;;;;5057646;28;20818;-62
2022/04/30 09:45:42;;;;;;;104.45;27.98;;;20.50;33.50;;;;;;5074903;28;20090;-63
2022/04/30 09:53:59;;;;;;;99.07;22.45;;;20.60;32.60;;;;;;5068453;28;20106;-63
2022/04/30 09:56:44;;;;;;;84.70;22.52;;;20.50;31.90;;;;;;5054754;28;20075;-64
2022/04/30 09:59:13;;;;;;;89.95;23.25;;;20.30;31.60;;;;;;5055107;28;20158;-62
2022/04/30 10:01:44;;;;;;;96.32;24.38;;;20.40;32.20;;;;;;5057158;28;20111;-63
2022/04/30 10:04:13;;;;;;;85.22;23.30;;;20.40;32.30;;;;;;5055846;28;20076;-62
2022/04/30 10:06:48;;;;;;;92.15;20.95;;;20.40;32.20;;;;;;5040670;28;20094;-64
2022/04/30 10:09:24;;;;;;;88.85;19.30;;;20.50;31.80;;;;;;5055910;28;20075;-64
2022/04/30 10:12:08;;;;;;;76.45;19.08;;;20.30;31.60;;;;;;5074934;28;20582;-62
2022/04/30 10:14:38;;;;;;;79.18;19.40;;;20.30;31.20;;;;;;5056008;28;20149;-65
2022/04/30 10:19:35;;;;;;;67.68;15.93;;;20.20;30.00;;;;;;5070597;28;20170;-62
2022/04/30 10:22:16;;;;;;;60.95;15.10;;;20.20;30.00;;;;;;5057943;28;20083;-61
2022/04/30 10:24:48;;;;;;;67.82;16.88;;;20.20;30.00;;;;;;5054182;28;20362;-62
2022/04/30 10:27:16;;;;;;;48.40;13.85;;;20.20;30.00;;;;;;5075470;28;20096;-64
2022/04/30 10:29:59;;;;;;;57.10;14.10;;;20.10;29.90;;;;;;5051958;28;20080;-61
2022/04/30 10:32:37;;;;;;;57.47;14.80;;;20.00;29.80;;;;;;5054263;28;20121;-62
2022/04/30 10:35:05;;;;;;;52.35;13.25;;;20.00;29.80;;;;;;5039681;28;20125;-62
2022/04/30 10:37:34;;;;;;;46.50;12.02;;;20.00;29.70;;;;;;5054589;28;20072;-64
2022/04/30 10:40:06;;;;;;;43.83;11.65;;;19.90;29.70;;;;;;5056432;28;20460;-63
2022/04/30 10:42:40;;;;;;;57.92;13.88;;;19.90;29.70;;;;;;5050378;28;20111;-62
2022/04/30 10:45:11;;;;;;;64.95;13.13;;;19.90;29.70;;;;;;5056227;28;20072;-62
2022/04/30 10:47:49;;;;;;;49.13;12.93;;;19.90;29.80;;;;;;5072659;28;20196;-62
2022/04/30 10:50:16;;;;;;;50.35;12.73;;;19.80;29.60;;;;;;5057843;28;20099;-61
2022/04/30 10:52:47;;;;;;;45.05;11.07;;;19.90;29.70;;;;;;5056146;28;20068;-63
2022/04/30 10:55:14;;;;;;;44.70;11.13;;;19.90;29.70;;;;;;5038148;28;20072;-63
2022/04/30 10:57:42;;;;;;;54.47;11.88;;;20.00;29.80;;;;;;5073706;28;20076;-63
2022/04/30 11:00:09;;;;;;;43.08;11.73;;;19.90;30.00;;;;;;5056605;28;20068;-62
2022/04/30 11:02:35;;;;;;;38.15;11.20;;;19.90;30.20;;;;;;5056707;28;20163;-62
2022/04/30 11:05:02;;;;;;;37.75;11.30;;;19.90;30.60;;;;;;5057974;28;20076;-61
2022/04/30 11:07:31;;;;;;;45.65;10.43;;;19.90;30.60;;;;;;5056766;28;20187;-61
2022/04/30 11:09:57;;;;;;;36.53;9.93;;;19.90;30.60;;;;;;5059275;28;20079;-64
2022/04/30 11:12:30;;;;;;;39.95;9.25;;;19.80;30.20;;;;;;5055843;28;20072;-64
2022/04/30 11:14:58;;;;;;;33.10;9.38;;;19.90;30.10;;;;;;5076818;28;20091;-61
2022/04/30 11:17:25;;;;;;;47.83;11.32;;;19.70;29.90;;;;;;5058790;28;20103;-61
2022/04/30 11:19:55;;;;;;;61.35;14.00;;;19.50;29.90;;;;;;5058750;28;20075;-62
2022/04/30 11:22:22;;;;;;;45.45;10.63;;;19.40;30.50;;;;;;5076638;28;20106;-62
2022/04/30 11:24:49;;;;;;;44.88;10.13;;;19.40;30.30;;;;;;5059425;28;20441;-61
2022/04/30 11:27:15;;;;;;;39.85;10.90;;;19.40;30.70;;;;;;5058964;28;20096;-62
2022/04/30 11:29:53;;;;;;;39.40;11.35;;;19.40;30.30;;;;;;5059408;28;20068;-62
2022/04/30 11:32:26;;;;;;;40.22;10.65;;;19.40;30.30;;;;;;5059449;28;20078;-62
2022/04/30 11:35:02;;;;;;;36.70;10.70;;;19.40;30.30;;;;;;5059694;28;20086;-64
2022/04/30 11:37:38;;;;;;;39.63;12.25;;;19.40;30.40;;;;;;5059066;28;20746;-62
2022/04/30 11:40:05;;;;;;;54.05;13.57;;;19.40;30.20;;;;;;5056920;28;20079;-63
2022/04/30 11:42:32;;;;;;;54.83;14.70;;;19.40;30.20;;;;;;5058020;28;20080;-62
2022/04/30 11:44:58;;;;;;;49.10;13.57;;;19.40;30.00;;;;;;5074656;28;20076;-64
2022/04/30 11:47:25;;;;;;;48.47;13.52;;;19.40;30.00;;;;;;5058756;28;20620;-62
2022/04/30 11:50:11;;;;;;;42.58;14.27;;;19.30;30.00;;;;;;5056719;28;20538;-62
2022/04/30 11:52:38;;;;;;;46.80;15.43;;;19.30;30.00;;;;;;5058291;28;20114;-65
2022/04/30 11:55:06;;;;;;;50.10;15.52;;;19.20;30.10;;;;;;5043045;28;20141;-62
2022/04/30 11:57:34;;;;;;;54.45;14.10;;;19.10;30.10;;;;;;5041989;28;20098;-62
2022/04/30 12:00:01;;;;;;;56.63;13.85;;;19.10;30.20;;;;;;5059072;28;20089;-64
2022/04/30 12:02:30;;;;;;;63.45;15.05;;;19.10;30.10;;;;;;5035897;28;20092;-64
2022/04/30 12:05:02;;;;;;;46.10;13.48;;;19.10;30.30;;;;;;5059484;28;20076;-62
2022/04/30 12:07:39;;;;;;;53.53;15.80;;;19.10;30.50;;;;;;5077228;28;20103;-65
2022/04/30 12:10:15;;;;;;;72.55;16.48;;;19.10;30.60;;;;;;5057803;28;20146;-65
2022/04/30 12:12:42;;;;;;;65.13;17.37;;;19.10;30.90;;;;;;5057165;28;20112;-64
2022/04/30 12:15:20;;;;;;;71.13;17.85;;;19.10;31.00;;;;;;5057195;28;20072;-63
2022/04/30 12:24:40;;;;;;;94.53;21.55;;;19.10;31.20;;;;;;5056121;28;20064;-61
2022/04/30 12:26:14;;;;;;;92.07;26.25;;;18.90;31.00;;;;;;5075581;28;20187;-62
2022/04/30 12:28:45;;;;;;;103.57;26.83;;;18.80;31.00;;;;;;5077997;28;20155;-61
2022/04/30 12:31:12;;;;;;;119.00;29.27;;;18.80;31.00;;;;;;5057336;28;20490;-64
2022/04/30 12:33:48;;;;;;;130.18;30.08;;;18.80;31.10;;;;;;5079912;28;20060;-64
2022/04/30 12:36:15;;;;;;;137.57;32.55;;;18.80;31.20;;;;;;5082576;28;20445;-64
2022/04/30 12:38:55;;;;;;;134.55;33.53;;;18.80;30.80;;;;;;5081196;28;20573;-62
2022/04/30 12:41:22;;;;;;;128.23;34.30;;;18.90;30.90;;;;;;5056547;28;20176;-62
2022/04/30 12:43:50;;;;;;;126.93;32.55;;;18.90;31.50;;;;;;5057403;28;20098;-64
2022/04/30 12:46:21;;;;;;;147.57;35.88;;;19.00;32.10;;;;;;5058313;28;20178;-62
2022/04/30 12:48:49;;;;;;;124.57;34.08;;;19.00;32.20;;;;;;5074566;28;20071;-65
2022/04/30 12:51:16;;;;;;;117.35;31.65;;;18.90;32.00;;;;;;5056198;28;20072;-63
2022/04/30 12:53:43;;;;;;;122.20;33.63;;;18.90;32.20;;;;;;5075998;28;20072;-61
2022/04/30 12:56:09;;;;;;;142.32;33.25;;;18.70;32.20;;;;;;5039838;28;20079;-64
2022/04/30 12:58:36;;;;;;;152.80;34.20;;;18.70;32.60;;;;;;5058594;28;20533;-61
2022/04/30 13:01:02;;;;;;;145.75;36.47;;;18.80;33.10;;;;;;5075307;28;20083;-63
2022/04/30 13:03:31;;;;;;;152.18;34.13;;;18.70;32.80;;;;;;5039757;28;20163;-62
2022/04/30 13:05:57;;;;;;;136.93;34.60;;;18.80;33.70;;;;;;5046661;28;20091;-62
2022/04/30 13:08:24;;;;;;;152.60;37.60;;;18.80;33.40;;;;;;5058231;28;20076;-62
2022/04/30 13:13:35;;;;;;;159.23;37.85;;;18.70;33.10;;;;;;5077860;28;20158;-62
2022/04/30 13:16:09;;;;;;;158.85;38.88;;;18.70;33.50;;;;;;5024731;28;20103;-64